Terminal Aerodrome Forecast
Issued by NWS

Home | Current Version | Previous Version | Graphics & Text | Print | Product List | Glossary On
Versions: 1 2 3 4 5 6 7 8 9 10 11 12 13 14 15 16 17 18 19 20 21 22 23 24 25 26 27 28 29
855
FTUS43 KLOT 291451 AAA
TAFORD
TAF AMD
KORD 291451Z 2915/3018 03019G25KT P6SM SCT025 OVC040
     FM291700 05018G28KT P6SM -SHRA BKN025 OVC040
     FM292100 04020G28KT 3SM RA BR BKN009 OVC012
     FM300200 04020G30KT 3SM -DZRA BR OVC006
     FM301200 07014G19KT 3SM -SHRA BR OVC006=

USA.gov is the U.S. government's official web portal to all federal, state and local government web resources and services.